sensor_id;sensor_type;location;lat;lon;timestamp;P1;durP1;ratioP1;P2;durP2;ratioP2
46753;SDS011;32500;50.620;3.400;2023-03-02T00:01:17;63.65;;;50.80;;
46753;SDS011;32500;50.620;3.400;2023-03-02T00:03:43;63.88;;;50.53;;
46753;SDS011;32500;50.620;3.400;2023-03-02T00:06:09;63.50;;;50.33;;
46753;SDS011;32500;50.620;3.400;2023-03-02T00:08:35;63.63;;;50.83;;
46753;SDS011;32500;50.620;3.400;2023-03-02T00:11:02;62.80;;;50.35;;
46753;SDS011;32500;50.620;3.400;2023-03-02T00:13:28;63.35;;;50.45;;
46753;SDS011;32500;50.620;3.400;2023-03-02T00:15:55;63.30;;;50.45;;
46753;SDS011;32500;50.620;3.400;2023-03-02T00:18:21;62.80;;;49.80;;
46753;SDS011;32500;50.620;3.400;2023-03-02T00:20:46;63.47;;;50.47;;
46753;SDS011;32500;50.620;3.400;2023-03-02T00:23:12;62.90;;;50.75;;
46753;SDS011;32500;50.620;3.400;2023-03-02T00:25:39;63.85;;;50.35;;
46753;SDS011;32500;50.620;3.400;2023-03-02T00:28:04;62.22;;;49.97;;
46753;SDS011;32500;50.620;3.400;2023-03-02T00:30:30;62.83;;;50.40;;
46753;SDS011;32500;50.620;3.400;2023-03-02T00:32:56;63.15;;;50.60;;
46753;SDS011;32500;50.620;3.400;2023-03-02T00:35:22;66.32;;;50.80;;
46753;SDS011;32500;50.620;3.400;2023-03-02T00:37:49;63.92;;;50.40;;
46753;SDS011;32500;50.620;3.400;2023-03-02T00:40:15;62.92;;;50.22;;
46753;SDS011;32500;50.620;3.400;2023-03-02T00:42:41;63.40;;;50.80;;
46753;SDS011;32500;50.620;3.400;2023-03-02T00:45:07;62.20;;;50.33;;
46753;SDS011;32500;50.620;3.400;2023-03-02T00:47:33;61.83;;;49.72;;
46753;SDS011;32500;50.620;3.400;2023-03-02T00:50:00;63.05;;;50.05;;
46753;SDS011;32500;50.620;3.400;2023-03-02T00:52:26;61.95;;;49.88;;
46753;SDS011;32500;50.620;3.400;2023-03-02T00:54:53;61.65;;;49.80;;
46753;SDS011;32500;50.620;3.400;2023-03-02T00:57:19;65.22;;;50.92;;
46753;SDS011;32500;50.620;3.400;2023-03-02T00:59:45;62.05;;;50.05;;
46753;SDS011;32500;50.620;3.400;2023-03-02T01:02:10;62.95;;;50.28;;
46753;SDS011;32500;50.620;3.400;2023-03-02T01:04:37;63.10;;;50.35;;
46753;SDS011;32500;50.620;3.400;2023-03-02T01:07:11;62.40;;;50.08;;
46753;SDS011;32500;50.620;3.400;2023-03-02T01:09:39;63.00;;;50.13;;
46753;SDS011;32500;50.620;3.400;2023-03-02T01:12:06;62.55;;;50.10;;
46753;SDS011;32500;50.620;3.400;2023-03-02T01:14:35;61.67;;;49.65;;
46753;SDS011;32500;50.620;3.400;2023-03-02T01:17:02;62.20;;;50.00;;
46753;SDS011;32500;50.620;3.400;2023-03-02T01:19:34;61.53;;;50.10;;
46753;SDS011;32500;50.620;3.400;2023-03-02T01:22:01;63.33;;;50.03;;
46753;SDS011;32500;50.620;3.400;2023-03-02T01:24:26;62.05;;;50.13;;
46753;SDS011;32500;50.620;3.400;2023-03-02T01:26:52;62.40;;;50.03;;
46753;SDS011;32500;50.620;3.400;2023-03-02T01:29:18;62.72;;;50.20;;
46753;SDS011;32500;50.620;3.400;2023-03-02T01:31:43;61.80;;;49.22;;
46753;SDS011;32500;50.620;3.400;2023-03-02T01:34:09;62.50;;;49.53;;
46753;SDS011;32500;50.620;3.400;2023-03-02T01:36:35;61.50;;;49.90;;
46753;SDS011;32500;50.620;3.400;2023-03-02T01:39:00;62.03;;;49.13;;
46753;SDS011;32500;50.620;3.400;2023-03-02T01:41:26;61.70;;;50.13;;
46753;SDS011;32500;50.620;3.400;2023-03-02T01:43:52;61.60;;;49.88;;
46753;SDS011;32500;50.620;3.400;2023-03-02T01:46:22;62.03;;;49.38;;
46753;SDS011;32500;50.620;3.400;2023-03-02T01:51:23;59.72;;;48.78;;
46753;SDS011;32500;50.620;3.400;2023-03-02T01:53:53;62.13;;;50.03;;
46753;SDS011;32500;50.620;3.400;2023-03-02T01:56:23;61.13;;;49.80;;
46753;SDS011;32500;50.620;3.400;2023-03-02T01:58:53;62.58;;;49.35;;
46753;SDS011;32500;50.620;3.400;2023-03-02T02:01:26;61.75;;;49.65;;
46753;SDS011;32500;50.620;3.400;2023-03-02T02:03:56;60.93;;;49.63;;
46753;SDS011;32500;50.620;3.400;2023-03-02T02:06:23;63.08;;;49.70;;
46753;SDS011;32500;50.620;3.400;2023-03-02T02:08:51;62.42;;;49.78;;
46753;SDS011;32500;50.620;3.400;2023-03-02T02:11:20;64.20;;;50.50;;
46753;SDS011;32500;50.620;3.400;2023-03-02T02:13:45;62.92;;;49.90;;
46753;SDS011;32500;50.620;3.400;2023-03-02T02:16:11;61.63;;;49.65;;
46753;SDS011;32500;50.620;3.400;2023-03-02T02:18:38;62.08;;;49.85;;
46753;SDS011;32500;50.620;3.400;2023-03-02T02:21:05;60.25;;;49.45;;
46753;SDS011;32500;50.620;3.400;2023-03-02T02:23:35;61.95;;;49.63;;
46753;SDS011;32500;50.620;3.400;2023-03-02T02:26:14;60.75;;;49.45;;
46753;SDS011;32500;50.620;3.400;2023-03-02T02:29:08;60.50;;;49.10;;
46753;SDS011;32500;50.620;3.400;2023-03-02T02:34:11;62.30;;;49.55;;
46753;SDS011;32500;50.620;3.400;2023-03-02T02:36:46;61.45;;;49.83;;
46753;SDS011;32500;50.620;3.400;2023-03-02T02:39:17;60.08;;;49.10;;
46753;SDS011;32500;50.620;3.400;2023-03-02T02:44:13;61.53;;;49.45;;
46753;SDS011;32500;50.620;3.400;2023-03-02T02:46:41;60.00;;;49.22;;
46753;SDS011;32500;50.620;3.400;2023-03-02T02:49:12;63.60;;;49.83;;
46753;SDS011;32500;50.620;3.400;2023-03-02T02:51:53;62.97;;;49.28;;
46753;SDS011;32500;50.620;3.400;2023-03-02T02:54:19;62.20;;;49.67;;
46753;SDS011;32500;50.620;3.400;2023-03-02T02:56:46;59.63;;;49.28;;
46753;SDS011;32500;50.620;3.400;2023-03-02T02:59:18;60.95;;;49.42;;
46753;SDS011;32500;50.620;3.400;2023-03-02T03:01:53;60.85;;;48.95;;
46753;SDS011;32500;50.620;3.400;2023-03-02T03:04:21;61.35;;;49.03;;
46753;SDS011;32500;50.620;3.400;2023-03-02T03:07:02;60.10;;;48.75;;
46753;SDS011;32500;50.620;3.400;2023-03-02T03:09:29;59.63;;;49.15;;
46753;SDS011;32500;50.620;3.400;2023-03-02T03:11:56;60.80;;;49.25;;
46753;SDS011;32500;50.620;3.400;2023-03-02T03:14:29;60.60;;;49.33;;
46753;SDS011;32500;50.620;3.400;2023-03-02T03:19:29;60.85;;;49.55;;
46753;SDS011;32500;50.620;3.400;2023-03-02T03:21:57;60.03;;;49.00;;
46753;SDS011;32500;50.620;3.400;2023-03-02T03:24:24;59.72;;;49.15;;
46753;SDS011;32500;50.620;3.400;2023-03-02T03:26:51;61.10;;;49.08;;
46753;SDS011;32500;50.620;3.400;2023-03-02T03:29:18;61.15;;;49.45;;
46753;SDS011;32500;50.620;3.400;2023-03-02T03:31:48;61.42;;;49.40;;
46753;SDS011;32500;50.620;3.400;2023-03-02T03:34:15;60.97;;;49.17;;
46753;SDS011;32500;50.620;3.400;2023-03-02T03:36:40;60.33;;;48.92;;
46753;SDS011;32500;50.620;3.400;2023-03-02T03:39:08;60.13;;;49.13;;
46753;SDS011;32500;50.620;3.400;2023-03-02T03:41:35;62.70;;;49.47;;
46753;SDS011;32500;50.620;3.400;2023-03-02T03:44:01;59.67;;;48.83;;
46753;SDS011;32500;50.620;3.400;2023-03-02T03:46:27;59.72;;;49.33;;
46753;SDS011;32500;50.620;3.400;2023-03-02T03:48:52;60.55;;;49.15;;
46753;SDS011;32500;50.620;3.400;2023-03-02T03:51:18;60.65;;;49.20;;
46753;SDS011;32500;50.620;3.400;2023-03-02T03:53:44;59.88;;;48.90;;
46753;SDS011;32500;50.620;3.400;2023-03-02T03:56:10;60.63;;;48.70;;
46753;SDS011;32500;50.620;3.400;2023-03-02T03:58:36;59.50;;;48.75;;
46753;SDS011;32500;50.620;3.400;2023-03-02T04:01:02;61.97;;;49.25;;
46753;SDS011;32500;50.620;3.400;2023-03-02T04:03:28;59.55;;;48.53;;
46753;SDS011;32500;50.620;3.400;2023-03-02T04:05:54;58.65;;;48.55;;
46753;SDS011;32500;50.620;3.400;2023-03-02T04:08:19;59.80;;;48.75;;
46753;SDS011;32500;50.620;3.400;2023-03-02T04:10:45;60.05;;;48.92;;
46753;SDS011;32500;50.620;3.400;2023-03-02T04:13:11;60.28;;;48.97;;
46753;SDS011;32500;50.620;3.400;2023-03-02T04:15:37;61.70;;;49.17;;
46753;SDS011;32500;50.620;3.400;2023-03-02T04:18:03;60.75;;;49.08;;
46753;SDS011;32500;50.620;3.400;2023-03-02T04:20:29;59.42;;;48.67;;
46753;SDS011;32500;50.620;3.400;2023-03-02T04:22:57;60.88;;;49.47;;
46753;SDS011;32500;50.620;3.400;2023-03-02T04:25:24;60.22;;;48.95;;
46753;SDS011;32500;50.620;3.400;2023-03-02T04:27:51;61.00;;;49.28;;
46753;SDS011;32500;50.620;3.400;2023-03-02T04:30:19;61.15;;;48.78;;
46753;SDS011;32500;50.620;3.400;2023-03-02T04:32:47;62.08;;;48.80;;
46753;SDS011;32500;50.620;3.400;2023-03-02T04:35:13;61.45;;;48.83;;
46753;SDS011;32500;50.620;3.400;2023-03-02T04:37:40;60.92;;;48.97;;
46753;SDS011;32500;50.620;3.400;2023-03-02T04:40:07;59.95;;;48.50;;
46753;SDS011;32500;50.620;3.400;2023-03-02T04:42:34;58.72;;;48.20;;
46753;SDS011;32500;50.620;3.400;2023-03-02T04:45:00;58.95;;;49.03;;
46753;SDS011;32500;50.620;3.400;2023-03-02T04:47:26;58.55;;;48.50;;
46753;SDS011;32500;50.620;3.400;2023-03-02T04:49:51;59.47;;;49.10;;
46753;SDS011;32500;50.620;3.400;2023-03-02T04:52:19;57.83;;;48.20;;
46753;SDS011;32500;50.620;3.400;2023-03-02T04:54:45;59.78;;;49.10;;
46753;SDS011;32500;50.620;3.400;2023-03-02T04:57:11;59.58;;;48.78;;
46753;SDS011;32500;50.620;3.400;2023-03-02T04:59:37;59.38;;;48.78;;
46753;SDS011;32500;50.620;3.400;2023-03-02T05:02:03;58.80;;;48.53;;
46753;SDS011;32500;50.620;3.400;2023-03-02T05:04:28;60.67;;;48.95;;
46753;SDS011;32500;50.620;3.400;2023-03-02T05:06:55;59.85;;;48.88;;
46753;SDS011;32500;50.620;3.400;2023-03-02T05:09:22;58.83;;;48.25;;
46753;SDS011;32500;50.620;3.400;2023-03-02T05:11:52;58.97;;;47.75;;
46753;SDS011;32500;50.620;3.400;2023-03-02T05:14:22;58.57;;;48.20;;
46753;SDS011;32500;50.620;3.400;2023-03-02T05:16:48;58.63;;;48.83;;
46753;SDS011;32500;50.620;3.400;2023-03-02T05:19:14;59.83;;;48.78;;
46753;SDS011;32500;50.620;3.400;2023-03-02T05:21:40;59.42;;;48.38;;
46753;SDS011;32500;50.620;3.400;2023-03-02T05:24:06;58.45;;;48.33;;
46753;SDS011;32500;50.620;3.400;2023-03-02T05:26:32;58.58;;;48.20;;
46753;SDS011;32500;50.620;3.400;2023-03-02T05:28:58;58.97;;;48.42;;
46753;SDS011;32500;50.620;3.400;2023-03-02T05:31:28;58.60;;;48.65;;
46753;SDS011;32500;50.620;3.400;2023-03-02T05:33:59;57.47;;;48.25;;
46753;SDS011;32500;50.620;3.400;2023-03-02T05:36:25;58.60;;;48.25;;
46753;SDS011;32500;50.620;3.400;2023-03-02T05:38:51;58.42;;;48.47;;
46753;SDS011;32500;50.620;3.400;2023-03-02T05:41:17;59.80;;;48.53;;
46753;SDS011;32500;50.620;3.400;2023-03-02T05:43:42;58.85;;;48.38;;
46753;SDS011;32500;50.620;3.400;2023-03-02T05:46:08;58.22;;;48.13;;
46753;SDS011;32500;50.620;3.400;2023-03-02T05:48:34;60.30;;;48.60;;
46753;SDS011;32500;50.620;3.400;2023-03-02T05:51:00;57.53;;;48.03;;
46753;SDS011;32500;50.620;3.400;2023-03-02T05:53:25;59.75;;;49.08;;
46753;SDS011;32500;50.620;3.400;2023-03-02T05:55:52;58.22;;;48.35;;
46753;SDS011;32500;50.620;3.400;2023-03-02T05:58:18;59.45;;;48.58;;
46753;SDS011;32500;50.620;3.400;2023-03-02T06:00:45;58.15;;;48.13;;
46753;SDS011;32500;50.620;3.400;2023-03-02T06:03:11;59.42;;;49.00;;
46753;SDS011;32500;50.620;3.400;2023-03-02T06:05:37;58.95;;;48.40;;
46753;SDS011;32500;50.620;3.400;2023-03-02T06:08:03;58.08;;;48.17;;
46753;SDS011;32500;50.620;3.400;2023-03-02T06:10:29;59.80;;;48.42;;
46753;SDS011;32500;50.620;3.400;2023-03-02T06:12:55;59.60;;;48.72;;
46753;SDS011;32500;50.620;3.400;2023-03-02T06:15:20;58.80;;;47.90;;
46753;SDS011;32500;50.620;3.400;2023-03-02T06:17:46;58.63;;;48.25;;
46753;SDS011;32500;50.620;3.400;2023-03-02T06:20:12;58.42;;;47.95;;
46753;SDS011;32500;50.620;3.400;2023-03-02T06:22:39;59.83;;;48.58;;
46753;SDS011;32500;50.620;3.400;2023-03-02T06:25:09;58.08;;;48.40;;
46753;SDS011;32500;50.620;3.400;2023-03-02T06:27:37;58.55;;;48.53;;
46753;SDS011;32500;50.620;3.400;2023-03-02T06:30:05;59.90;;;48.70;;
46753;SDS011;32500;50.620;3.400;2023-03-02T06:32:32;58.60;;;48.00;;
46753;SDS011;32500;50.620;3.400;2023-03-02T06:34:59;57.78;;;48.40;;
46753;SDS011;32500;50.620;3.400;2023-03-02T06:37:26;61.38;;;48.00;;
46753;SDS011;32500;50.620;3.400;2023-03-02T06:39:54;59.53;;;48.55;;
46753;SDS011;32500;50.620;3.400;2023-03-02T06:42:20;59.80;;;48.63;;
46753;SDS011;32500;50.620;3.400;2023-03-02T06:44:46;60.25;;;48.65;;
46753;SDS011;32500;50.620;3.400;2023-03-02T06:47:12;61.83;;;48.85;;
46753;SDS011;32500;50.620;3.400;2023-03-02T06:49:38;59.15;;;48.50;;
46753;SDS011;32500;50.620;3.400;2023-03-02T06:52:04;61.38;;;48.45;;
46753;SDS011;32500;50.620;3.400;2023-03-02T06:54:31;61.90;;;49.63;;
46753;SDS011;32500;50.620;3.400;2023-03-02T06:56:57;61.03;;;49.08;;
46753;SDS011;32500;50.620;3.400;2023-03-02T06:59:23;60.92;;;48.60;;
46753;SDS011;32500;50.620;3.400;2023-03-02T07:01:49;59.60;;;48.53;;
46753;SDS011;32500;50.620;3.400;2023-03-02T07:04:15;60.38;;;48.65;;
46753;SDS011;32500;50.620;3.400;2023-03-02T07:06:41;59.35;;;48.55;;
46753;SDS011;32500;50.620;3.400;2023-03-02T07:09:07;58.95;;;48.72;;
46753;SDS011;32500;50.620;3.400;2023-03-02T07:11:32;59.25;;;48.22;;
46753;SDS011;32500;50.620;3.400;2023-03-02T07:14:01;61.65;;;49.05;;
46753;SDS011;32500;50.620;3.400;2023-03-02T07:16:27;59.88;;;48.42;;
46753;SDS011;32500;50.620;3.400;2023-03-02T07:18:52;60.72;;;49.00;;
46753;SDS011;32500;50.620;3.400;2023-03-02T07:21:18;63.03;;;48.70;;
46753;SDS011;32500;50.620;3.400;2023-03-02T07:24:29;61.47;;;48.78;;
46753;SDS011;32500;50.620;3.400;2023-03-02T07:26:55;59.20;;;48.45;;
46753;SDS011;32500;50.620;3.400;2023-03-02T07:29:20;62.35;;;48.80;;
46753;SDS011;32500;50.620;3.400;2023-03-02T07:31:46;63.33;;;49.13;;
46753;SDS011;32500;50.620;3.400;2023-03-02T07:34:12;60.45;;;48.78;;
46753;SDS011;32500;50.620;3.400;2023-03-02T07:36:39;65.00;;;49.20;;
46753;SDS011;32500;50.620;3.400;2023-03-02T07:39:05;61.38;;;48.83;;
46753;SDS011;32500;50.620;3.400;2023-03-02T07:41:30;61.10;;;49.33;;
46753;SDS011;32500;50.620;3.400;2023-03-02T07:43:56;60.92;;;48.60;;
46753;SDS011;32500;50.620;3.400;2023-03-02T07:46:22;60.70;;;48.58;;
46753;SDS011;32500;50.620;3.400;2023-03-02T07:48:47;61.13;;;49.15;;
46753;SDS011;32500;50.620;3.400;2023-03-02T07:51:13;59.80;;;48.42;;
46753;SDS011;32500;50.620;3.400;2023-03-02T07:53:39;63.63;;;48.88;;
46753;SDS011;32500;50.620;3.400;2023-03-02T07:56:05;60.05;;;48.53;;
46753;SDS011;32500;50.620;3.400;2023-03-02T07:58:32;62.03;;;49.10;;
46753;SDS011;32500;50.620;3.400;2023-03-02T08:00:57;60.47;;;48.50;;
46753;SDS011;32500;50.620;3.400;2023-03-02T08:03:23;60.63;;;48.88;;
46753;SDS011;32500;50.620;3.400;2023-03-02T08:05:49;61.58;;;48.70;;
46753;SDS011;32500;50.620;3.400;2023-03-02T08:08:14;61.92;;;48.67;;
46753;SDS011;32500;50.620;3.400;2023-03-02T08:10:40;60.55;;;48.40;;
46753;SDS011;32500;50.620;3.400;2023-03-02T08:13:06;60.60;;;49.22;;
46753;SDS011;32500;50.620;3.400;2023-03-02T08:15:31;59.85;;;48.67;;
46753;SDS011;32500;50.620;3.400;2023-03-02T08:17:57;61.75;;;49.42;;
46753;SDS011;32500;50.620;3.400;2023-03-02T08:20:23;61.15;;;49.38;;
46753;SDS011;32500;50.620;3.400;2023-03-02T08:22:48;62.03;;;49.53;;
46753;SDS011;32500;50.620;3.400;2023-03-02T08:25:15;61.45;;;49.03;;
46753;SDS011;32500;50.620;3.400;2023-03-02T08:27:42;62.15;;;48.60;;
46753;SDS011;32500;50.620;3.400;2023-03-02T08:30:10;61.95;;;49.17;;
46753;SDS011;32500;50.620;3.400;2023-03-02T08:32:36;61.72;;;49.05;;
46753;SDS011;32500;50.620;3.400;2023-03-02T08:35:04;61.20;;;48.83;;
46753;SDS011;32500;50.620;3.400;2023-03-02T08:37:32;61.95;;;49.13;;
46753;SDS011;32500;50.620;3.400;2023-03-02T08:39:58;66.28;;;49.65;;
46753;SDS011;32500;50.620;3.400;2023-03-02T08:42:24;60.92;;;48.78;;
46753;SDS011;32500;50.620;3.400;2023-03-02T08:44:49;62.47;;;49.10;;
46753;SDS011;32500;50.620;3.400;2023-03-02T08:47:15;65.70;;;49.33;;
46753;SDS011;32500;50.620;3.400;2023-03-02T08:49:41;64.60;;;50.08;;
46753;SDS011;32500;50.620;3.400;2023-03-02T08:52:06;63.35;;;49.25;;
46753;SDS011;32500;50.620;3.400;2023-03-02T08:54:32;63.47;;;49.42;;
46753;SDS011;32500;50.620;3.400;2023-03-02T08:57:01;67.22;;;49.65;;
46753;SDS011;32500;50.620;3.400;2023-03-02T09:00:40;65.10;;;49.55;;
46753;SDS011;32500;50.620;3.400;2023-03-02T09:03:05;62.00;;;48.78;;
46753;SDS011;32500;50.620;3.400;2023-03-02T09:05:31;63.05;;;49.63;;
46753;SDS011;32500;50.620;3.400;2023-03-02T09:07:57;66.63;;;49.55;;
46753;SDS011;32500;50.620;3.400;2023-03-02T09:10:22;63.42;;;49.63;;
46753;SDS011;32500;50.620;3.400;2023-03-02T09:12:48;61.80;;;49.38;;
46753;SDS011;32500;50.620;3.400;2023-03-02T09:15:13;64.28;;;50.53;;
46753;SDS011;32500;50.620;3.400;2023-03-02T09:17:39;62.45;;;49.03;;
46753;SDS011;32500;50.620;3.400;2023-03-02T09:20:05;63.33;;;49.38;;
46753;SDS011;32500;50.620;3.400;2023-03-02T09:22:32;63.13;;;48.88;;
46753;SDS011;32500;50.620;3.400;2023-03-02T09:24:59;65.72;;;49.47;;
46753;SDS011;32500;50.620;3.400;2023-03-02T09:27:29;66.88;;;50.22;;
46753;SDS011;32500;50.620;3.400;2023-03-02T09:29:55;61.03;;;48.70;;
46753;SDS011;32500;50.620;3.400;2023-03-02T09:32:59;64.63;;;49.38;;
46753;SDS011;32500;50.620;3.400;2023-03-02T09:35:25;66.18;;;50.22;;
46753;SDS011;32500;50.620;3.400;2023-03-02T09:50:29;65.78;;;49.50;;
46753;SDS011;32500;50.620;3.400;2023-03-02T09:55:57;64.78;;;49.10;;
46753;SDS011;32500;50.620;3.400;2023-03-02T09:58:33;65.03;;;49.03;;
46753;SDS011;32500;50.620;3.400;2023-03-02T10:01:15;65.20;;;50.28;;
46753;SDS011;32500;50.620;3.400;2023-03-02T10:03:55;63.95;;;49.78;;
46753;SDS011;32500;50.620;3.400;2023-03-02T10:06:54;63.17;;;49.65;;
46753;SDS011;32500;50.620;3.400;2023-03-02T10:09:22;64.57;;;49.95;;
46753;SDS011;32500;50.620;3.400;2023-03-02T10:12:13;66.70;;;50.22;;
46753;SDS011;32500;50.620;3.400;2023-03-02T10:20:27;67.57;;;49.75;;
46753;SDS011;32500;50.620;3.400;2023-03-02T10:23:01;63.75;;;49.78;;
46753;SDS011;32500;50.620;3.400;2023-03-02T10:25:49;66.30;;;51.17;;
46753;SDS011;32500;50.620;3.400;2023-03-02T10:28:20;66.57;;;51.47;;
46753;SDS011;32500;50.620;3.400;2023-03-02T10:31:52;66.60;;;50.60;;
46753;SDS011;32500;50.620;3.400;2023-03-02T10:34:33;70.97;;;51.28;;
46753;SDS011;32500;50.620;3.400;2023-03-02T10:37:02;75.43;;;52.33;;
46753;SDS011;32500;50.620;3.400;2023-03-02T10:39:38;77.35;;;51.42;;
46753;SDS011;32500;50.620;3.400;2023-03-02T10:42:05;68.97;;;52.25;;
46753;SDS011;32500;50.620;3.400;2023-03-02T10:44:44;71.47;;;51.58;;
46753;SDS011;32500;50.620;3.400;2023-03-02T10:47:20;69.45;;;51.88;;
46753;SDS011;32500;50.620;3.400;2023-03-02T10:49:50;70.82;;;51.63;;
46753;SDS011;32500;50.620;3.400;2023-03-02T10:52:18;69.65;;;51.78;;
46753;SDS011;32500;50.620;3.400;2023-03-02T10:54:49;72.72;;;53.08;;
46753;SDS011;32500;50.620;3.400;2023-03-02T11:00:09;72.40;;;51.60;;
46753;SDS011;32500;50.620;3.400;2023-03-02T11:04:12;73.53;;;51.42;;
46753;SDS011;32500;50.620;3.400;2023-03-02T11:06:40;74.18;;;52.10;;
46753;SDS011;32500;50.620;3.400;2023-03-02T11:09:06;72.45;;;51.63;;
46753;SDS011;32500;50.620;3.400;2023-03-02T11:11:32;72.95;;;52.33;;
46753;SDS011;32500;50.620;3.400;2023-03-02T11:14:09;72.32;;;52.63;;
46753;SDS011;32500;50.620;3.400;2023-03-02T11:16:39;76.25;;;53.05;;
46753;SDS011;32500;50.620;3.400;2023-03-02T11:19:12;71.10;;;51.88;;
46753;SDS011;32500;50.620;3.400;2023-03-02T11:22:02;71.38;;;51.58;;
46753;SDS011;32500;50.620;3.400;2023-03-02T11:24:40;74.10;;;51.65;;
46753;SDS011;32500;50.620;3.400;2023-03-02T11:27:13;75.97;;;51.53;;
46753;SDS011;32500;50.620;3.400;2023-03-02T11:29:48;73.75;;;51.28;;
46753;SDS011;32500;50.620;3.400;2023-03-02T11:37:54;73.72;;;52.17;;
46753;SDS011;32500;50.620;3.400;2023-03-02T11:40:25;78.55;;;53.05;;
46753;SDS011;32500;50.620;3.400;2023-03-02T11:42:58;76.90;;;53.72;;
46753;SDS011;32500;50.620;3.400;2023-03-02T11:45:30;81.32;;;55.20;;
46753;SDS011;32500;50.620;3.400;2023-03-02T11:48:06;82.25;;;55.80;;
46753;SDS011;32500;50.620;3.400;2023-03-02T11:50:49;82.82;;;56.95;;
46753;SDS011;32500;50.620;3.400;2023-03-02T11:53:21;85.25;;;57.67;;
46753;SDS011;32500;50.620;3.400;2023-03-02T11:55:51;82.88;;;57.75;;
46753;SDS011;32500;50.620;3.400;2023-03-02T11:58:20;84.57;;;57.25;;
46753;SDS011;32500;50.620;3.400;2023-03-02T12:00:49;81.80;;;57.20;;
46753;SDS011;32500;50.620;3.400;2023-03-02T12:05:42;79.78;;;56.75;;
46753;SDS011;32500;50.620;3.400;2023-03-02T12:10:41;83.00;;;57.13;;
46753;SDS011;32500;50.620;3.400;2023-03-02T12:15:54;82.10;;;56.05;;
46753;SDS011;32500;50.620;3.400;2023-03-02T12:23:28;83.40;;;55.75;;
46753;SDS011;32500;50.620;3.400;2023-03-02T12:26:20;78.70;;;54.95;;
46753;SDS011;32500;50.620;3.400;2023-03-02T12:28:55;79.38;;;56.10;;
46753;SDS011;32500;50.620;3.400;2023-03-02T12:31:46;80.88;;;54.70;;
46753;SDS011;32500;50.620;3.400;2023-03-02T12:36:48;80.93;;;55.35;;
46753;SDS011;32500;50.620;3.400;2023-03-02T12:45:19;79.80;;;55.17;;
46753;SDS011;32500;50.620;3.400;2023-03-02T12:48:26;75.95;;;54.20;;
46753;SDS011;32500;50.620;3.400;2023-03-02T12:50:59;76.55;;;55.22;;
46753;SDS011;32500;50.620;3.400;2023-03-02T12:53:28;77.55;;;54.33;;
46753;SDS011;32500;50.620;3.400;2023-03-02T12:55:54;77.85;;;54.80;;
46753;SDS011;32500;50.620;3.400;2023-03-02T12:58:26;74.28;;;53.85;;
46753;SDS011;32500;50.620;3.400;2023-03-02T13:00:55;77.32;;;54.55;;
46753;SDS011;32500;50.620;3.400;2023-03-02T13:03:21;82.70;;;54.78;;
46753;SDS011;32500;50.620;3.400;2023-03-02T13:05:47;82.10;;;54.08;;
46753;SDS011;32500;50.620;3.400;2023-03-02T13:08:17;78.97;;;53.92;;
46753;SDS011;32500;50.620;3.400;2023-03-02T13:16:26;76.90;;;54.45;;
46753;SDS011;32500;50.620;3.400;2023-03-02T13:18:56;77.20;;;54.47;;
46753;SDS011;32500;50.620;3.400;2023-03-02T13:21:33;75.22;;;53.20;;
46753;SDS011;32500;50.620;3.400;2023-03-02T13:24:01;76.03;;;54.08;;
46753;SDS011;32500;50.620;3.400;2023-03-02T13:26:32;74.32;;;52.88;;
46753;SDS011;32500;50.620;3.400;2023-03-02T13:29:13;79.93;;;53.15;;
46753;SDS011;32500;50.620;3.400;2023-03-02T13:31:46;76.28;;;52.95;;
46753;SDS011;32500;50.620;3.400;2023-03-02T13:34:20;74.97;;;53.35;;
46753;SDS011;32500;50.620;3.400;2023-03-02T13:36:47;77.65;;;53.55;;
46753;SDS011;32500;50.620;3.400;2023-03-02T13:39:16;74.50;;;53.60;;
46753;SDS011;32500;50.620;3.400;2023-03-02T13:41:53;76.60;;;53.35;;
46753;SDS011;32500;50.620;3.400;2023-03-02T13:44:27;76.43;;;53.40;;
46753;SDS011;32500;50.620;3.400;2023-03-02T13:46:55;76.10;;;53.35;;
46753;SDS011;32500;50.620;3.400;2023-03-02T13:49:28;77.18;;;53.28;;
46753;SDS011;32500;50.620;3.400;2023-03-02T13:54:29;81.93;;;53.70;;
46753;SDS011;32500;50.620;3.400;2023-03-02T13:56:57;81.68;;;53.45;;
46753;SDS011;32500;50.620;3.400;2023-03-02T13:59:26;81.65;;;53.20;;
46753;SDS011;32500;50.620;3.400;2023-03-02T14:01:52;80.00;;;53.45;;
46753;SDS011;32500;50.620;3.400;2023-03-02T14:04:18;79.05;;;53.20;;
46753;SDS011;32500;50.620;3.400;2023-03-02T14:06:47;77.47;;;53.85;;
46753;SDS011;32500;50.620;3.400;2023-03-02T14:09:17;89.40;;;54.53;;
46753;SDS011;32500;50.620;3.400;2023-03-02T14:11:45;85.45;;;54.60;;
46753;SDS011;32500;50.620;3.400;2023-03-02T14:14:15;84.93;;;54.85;;
46753;SDS011;32500;50.620;3.400;2023-03-02T14:16:47;79.90;;;53.45;;
46753;SDS011;32500;50.620;3.400;2023-03-02T14:19:13;82.80;;;54.47;;
46753;SDS011;32500;50.620;3.400;2023-03-02T14:21:42;83.10;;;54.15;;
46753;SDS011;32500;50.620;3.400;2023-03-02T14:24:09;78.80;;;53.72;;
46753;SDS011;32500;50.620;3.400;2023-03-02T14:26:36;80.55;;;54.70;;
46753;SDS011;32500;50.620;3.400;2023-03-02T14:31:54;82.43;;;54.60;;
46753;SDS011;32500;50.620;3.400;2023-03-02T14:34:24;78.80;;;54.97;;
46753;SDS011;32500;50.620;3.400;2023-03-02T14:36:53;82.55;;;54.97;;
46753;SDS011;32500;50.620;3.400;2023-03-02T14:39:34;80.55;;;55.85;;
46753;SDS011;32500;50.620;3.400;2023-03-02T14:42:09;80.13;;;54.00;;
46753;SDS011;32500;50.620;3.400;2023-03-02T14:44:36;78.45;;;54.67;;
46753;SDS011;32500;50.620;3.400;2023-03-02T14:47:03;83.60;;;54.95;;
46753;SDS011;32500;50.620;3.400;2023-03-02T14:49:29;79.97;;;54.92;;
46753;SDS011;32500;50.620;3.400;2023-03-02T14:54:25;78.57;;;55.10;;
46753;SDS011;32500;50.620;3.400;2023-03-02T14:56:52;80.10;;;54.20;;
46753;SDS011;32500;50.620;3.400;2023-03-02T14:59:18;78.20;;;54.17;;
46753;SDS011;32500;50.620;3.400;2023-03-02T15:01:44;78.38;;;54.15;;
46753;SDS011;32500;50.620;3.400;2023-03-02T15:04:10;78.88;;;54.45;;
46753;SDS011;32500;50.620;3.400;2023-03-02T15:06:36;79.43;;;53.35;;
46753;SDS011;32500;50.620;3.400;2023-03-02T15:09:03;79.57;;;53.33;;
46753;SDS011;32500;50.620;3.400;2023-03-02T15:11:29;77.80;;;53.63;;
46753;SDS011;32500;50.620;3.400;2023-03-02T15:13:55;77.90;;;53.35;;
46753;SDS011;32500;50.620;3.400;2023-03-02T15:16:21;77.18;;;53.50;;
46753;SDS011;32500;50.620;3.400;2023-03-02T15:18:47;76.45;;;54.40;;
46753;SDS011;32500;50.620;3.400;2023-03-02T15:21:15;80.85;;;54.75;;
46753;SDS011;32500;50.620;3.400;2023-03-02T15:23:46;79.95;;;54.65;;
46753;SDS011;32500;50.620;3.400;2023-03-02T15:26:12;76.10;;;54.03;;
46753;SDS011;32500;50.620;3.400;2023-03-02T15:28:38;78.05;;;54.50;;
46753;SDS011;32500;50.620;3.400;2023-03-02T15:31:05;79.70;;;54.33;;
46753;SDS011;32500;50.620;3.400;2023-03-02T15:33:31;80.30;;;54.35;;
46753;SDS011;32500;50.620;3.400;2023-03-02T15:35:57;79.30;;;54.50;;
46753;SDS011;32500;50.620;3.400;2023-03-02T15:38:24;77.78;;;54.38;;
46753;SDS011;32500;50.620;3.400;2023-03-02T15:40:49;81.45;;;54.67;;
46753;SDS011;32500;50.620;3.400;2023-03-02T15:43:15;83.15;;;54.95;;
46753;SDS011;32500;50.620;3.400;2023-03-02T15:45:44;82.80;;;54.47;;
46753;SDS011;32500;50.620;3.400;2023-03-02T15:48:10;80.53;;;54.40;;